sensor_id;sensor_type;location;lat;lon;timestamp;P1;durP1;ratioP1;P2;durP2;ratioP2
7685;SDS011;3885;51.474;-2.576;2022-12-18T00:01:37;21.53;;;9.80;;
7685;SDS011;3885;51.474;-2.576;2022-12-18T00:04:05;26.70;;;8.47;;
7685;SDS011;3885;51.474;-2.576;2022-12-18T00:06:33;13.63;;;7.03;;
7685;SDS011;3885;51.474;-2.576;2022-12-18T00:09:02;20.17;;;9.20;;
7685;SDS011;3885;51.474;-2.576;2022-12-18T00:11:30;17.07;;;7.40;;
7685;SDS011;3885;51.474;-2.576;2022-12-18T00:13:58;10.10;;;7.30;;
7685;SDS011;3885;51.474;-2.576;2022-12-18T00:16:27;12.03;;;6.90;;
7685;SDS011;3885;51.474;-2.576;2022-12-18T00:18:57;16.80;;;7.80;;
7685;SDS011;3885;51.474;-2.576;2022-12-18T00:21:26;15.97;;;7.83;;
7685;SDS011;3885;51.474;-2.576;2022-12-18T00:23:53;16.70;;;9.40;;
7685;SDS011;3885;51.474;-2.576;2022-12-18T00:26:21;16.03;;;8.10;;
7685;SDS011;3885;51.474;-2.576;2022-12-18T00:28:50;15.97;;;7.63;;
7685;SDS011;3885;51.474;-2.576;2022-12-18T00:31:18;20.90;;;10.03;;
7685;SDS011;3885;51.474;-2.576;2022-12-18T00:33:48;18.60;;;9.10;;
7685;SDS011;3885;51.474;-2.576;2022-12-18T00:36:15;16.57;;;8.67;;
7685;SDS011;3885;51.474;-2.576;2022-12-18T00:38:44;16.90;;;9.10;;
7685;SDS011;3885;51.474;-2.576;2022-12-18T00:41:12;23.43;;;9.40;;
7685;SDS011;3885;51.474;-2.576;2022-12-18T00:44:01;24.80;;;9.20;;
7685;SDS011;3885;51.474;-2.576;2022-12-18T00:46:27;13.43;;;8.30;;
7685;SDS011;3885;51.474;-2.576;2022-12-18T00:48:56;22.50;;;9.50;;
7685;SDS011;3885;51.474;-2.576;2022-12-18T00:51:23;18.33;;;9.93;;
7685;SDS011;3885;51.474;-2.576;2022-12-18T00:53:50;30.93;;;9.80;;
7685;SDS011;3885;51.474;-2.576;2022-12-18T00:56:17;19.13;;;8.47;;
7685;SDS011;3885;51.474;-2.576;2022-12-18T00:58:44;21.63;;;10.77;;
7685;SDS011;3885;51.474;-2.576;2022-12-18T01:01:11;19.70;;;9.07;;
7685;SDS011;3885;51.474;-2.576;2022-12-18T01:03:38;24.23;;;10.37;;
7685;SDS011;3885;51.474;-2.576;2022-12-18T01:06:07;34.23;;;12.80;;
7685;SDS011;3885;51.474;-2.576;2022-12-18T01:08:36;28.17;;;11.13;;
7685;SDS011;3885;51.474;-2.576;2022-12-18T01:11:06;24.13;;;10.63;;
7685;SDS011;3885;51.474;-2.576;2022-12-18T01:13:34;27.37;;;10.10;;
7685;SDS011;3885;51.474;-2.576;2022-12-18T01:16:01;21.47;;;10.40;;
7685;SDS011;3885;51.474;-2.576;2022-12-18T01:18:28;23.47;;;11.07;;
7685;SDS011;3885;51.474;-2.576;2022-12-18T01:20:54;17.77;;;8.40;;
7685;SDS011;3885;51.474;-2.576;2022-12-18T01:23:23;18.67;;;9.77;;
7685;SDS011;3885;51.474;-2.576;2022-12-18T01:25:50;28.90;;;10.60;;
7685;SDS011;3885;51.474;-2.576;2022-12-18T01:28:17;20.53;;;11.43;;
7685;SDS011;3885;51.474;-2.576;2022-12-18T01:30:44;20.10;;;9.57;;
7685;SDS011;3885;51.474;-2.576;2022-12-18T01:33:11;24.73;;;12.23;;
7685;SDS011;3885;51.474;-2.576;2022-12-18T01:35:40;23.43;;;12.23;;
7685;SDS011;3885;51.474;-2.576;2022-12-18T01:38:07;29.10;;;11.03;;
7685;SDS011;3885;51.474;-2.576;2022-12-18T01:40:36;32.47;;;15.57;;
7685;SDS011;3885;51.474;-2.576;2022-12-18T01:43:03;45.43;;;15.70;;
7685;SDS011;3885;51.474;-2.576;2022-12-18T01:45:30;41.57;;;15.47;;
7685;SDS011;3885;51.474;-2.576;2022-12-18T01:47:58;29.93;;;11.60;;
7685;SDS011;3885;51.474;-2.576;2022-12-18T01:50:28;24.03;;;11.80;;
7685;SDS011;3885;51.474;-2.576;2022-12-18T01:53:00;23.07;;;11.70;;
7685;SDS011;3885;51.474;-2.576;2022-12-18T01:55:32;18.80;;;9.80;;
7685;SDS011;3885;51.474;-2.576;2022-12-18T01:58:04;18.70;;;9.40;;
7685;SDS011;3885;51.474;-2.576;2022-12-18T02:00:31;21.70;;;8.67;;
7685;SDS011;3885;51.474;-2.576;2022-12-18T02:02:58;17.00;;;8.30;;
7685;SDS011;3885;51.474;-2.576;2022-12-18T02:05:27;14.53;;;8.37;;
7685;SDS011;3885;51.474;-2.576;2022-12-18T02:07:58;17.60;;;8.80;;
7685;SDS011;3885;51.474;-2.576;2022-12-18T02:10:34;15.00;;;7.97;;
7685;SDS011;3885;51.474;-2.576;2022-12-18T02:13:09;11.73;;;7.27;;
7685;SDS011;3885;51.474;-2.576;2022-12-18T02:15:40;22.03;;;7.93;;
7685;SDS011;3885;51.474;-2.576;2022-12-18T02:18:18;14.13;;;7.20;;
7685;SDS011;3885;51.474;-2.576;2022-12-18T02:20:49;20.20;;;7.70;;
7685;SDS011;3885;51.474;-2.576;2022-12-18T02:23:24;7.93;;;5.70;;
7685;SDS011;3885;51.474;-2.576;2022-12-18T02:26:09;15.53;;;6.87;;
7685;SDS011;3885;51.474;-2.576;2022-12-18T02:28:43;10.27;;;6.50;;
7685;SDS011;3885;51.474;-2.576;2022-12-18T02:31:14;10.20;;;6.53;;
7685;SDS011;3885;51.474;-2.576;2022-12-18T02:33:44;11.90;;;5.60;;
7685;SDS011;3885;51.474;-2.576;2022-12-18T02:36:12;12.10;;;5.17;;
7685;SDS011;3885;51.474;-2.576;2022-12-18T02:38:39;18.40;;;6.00;;
7685;SDS011;3885;51.474;-2.576;2022-12-18T02:41:09;7.47;;;5.33;;
7685;SDS011;3885;51.474;-2.576;2022-12-18T02:43:37;7.83;;;5.13;;
7685;SDS011;3885;51.474;-2.576;2022-12-18T02:48:58;16.90;;;6.50;;
7685;SDS011;3885;51.474;-2.576;2022-12-18T02:51:32;13.37;;;6.87;;
7685;SDS011;3885;51.474;-2.576;2022-12-18T02:54:00;8.87;;;6.07;;
7685;SDS011;3885;51.474;-2.576;2022-12-18T02:56:35;19.10;;;8.87;;
7685;SDS011;3885;51.474;-2.576;2022-12-18T02:59:06;14.57;;;7.50;;
7685;SDS011;3885;51.474;-2.576;2022-12-18T03:01:40;10.20;;;6.00;;
7685;SDS011;3885;51.474;-2.576;2022-12-18T03:04:10;12.00;;;7.40;;
7685;SDS011;3885;51.474;-2.576;2022-12-18T03:06:41;13.40;;;8.40;;
7685;SDS011;3885;51.474;-2.576;2022-12-18T03:09:14;15.97;;;6.60;;
7685;SDS011;3885;51.474;-2.576;2022-12-18T03:11:45;12.73;;;6.47;;
7685;SDS011;3885;51.474;-2.576;2022-12-18T03:14:35;10.93;;;6.03;;
7685;SDS011;3885;51.474;-2.576;2022-12-18T03:17:07;11.93;;;6.50;;
7685;SDS011;3885;51.474;-2.576;2022-12-18T03:19:41;17.07;;;7.97;;
7685;SDS011;3885;51.474;-2.576;2022-12-18T03:22:12;21.77;;;7.20;;
7685;SDS011;3885;51.474;-2.576;2022-12-18T03:24:39;21.50;;;6.67;;
7685;SDS011;3885;51.474;-2.576;2022-12-18T03:27:08;15.53;;;6.90;;
7685;SDS011;3885;51.474;-2.576;2022-12-18T03:29:40;12.83;;;6.90;;
7685;SDS011;3885;51.474;-2.576;2022-12-18T03:32:09;15.20;;;6.73;;
7685;SDS011;3885;51.474;-2.576;2022-12-18T03:34:41;16.10;;;7.83;;
7685;SDS011;3885;51.474;-2.576;2022-12-18T03:37:09;44.90;;;13.43;;
7685;SDS011;3885;51.474;-2.576;2022-12-18T03:39:36;50.30;;;16.07;;
7685;SDS011;3885;51.474;-2.576;2022-12-18T03:42:04;43.10;;;15.63;;
7685;SDS011;3885;51.474;-2.576;2022-12-18T03:44:39;44.10;;;16.53;;
7685;SDS011;3885;51.474;-2.576;2022-12-18T03:47:12;50.53;;;19.63;;
7685;SDS011;3885;51.474;-2.576;2022-12-18T03:49:45;42.67;;;16.43;;
7685;SDS011;3885;51.474;-2.576;2022-12-18T03:52:17;60.00;;;22.57;;
7685;SDS011;3885;51.474;-2.576;2022-12-18T03:54:49;95.83;;;24.80;;
7685;SDS011;3885;51.474;-2.576;2022-12-18T03:57:19;114.43;;;29.67;;
7685;SDS011;3885;51.474;-2.576;2022-12-18T03:59:49;69.53;;;18.80;;
7685;SDS011;3885;51.474;-2.576;2022-12-18T04:02:19;47.40;;;16.07;;
7685;SDS011;3885;51.474;-2.576;2022-12-18T04:04:49;52.63;;;17.47;;
7685;SDS011;3885;51.474;-2.576;2022-12-18T04:07:19;62.63;;;18.27;;
7685;SDS011;3885;51.474;-2.576;2022-12-18T04:09:47;42.43;;;14.23;;
7685;SDS011;3885;51.474;-2.576;2022-12-18T04:12:16;42.93;;;14.17;;
7685;SDS011;3885;51.474;-2.576;2022-12-18T04:14:44;43.30;;;13.97;;
7685;SDS011;3885;51.474;-2.576;2022-12-18T04:17:11;36.53;;;12.90;;
7685;SDS011;3885;51.474;-2.576;2022-12-18T04:19:38;29.57;;;11.03;;
7685;SDS011;3885;51.474;-2.576;2022-12-18T04:22:05;23.53;;;9.60;;
7685;SDS011;3885;51.474;-2.576;2022-12-18T04:24:32;44.90;;;12.60;;
7685;SDS011;3885;51.474;-2.576;2022-12-18T04:26:59;21.97;;;9.57;;
7685;SDS011;3885;51.474;-2.576;2022-12-18T04:29:27;32.47;;;12.20;;
7685;SDS011;3885;51.474;-2.576;2022-12-18T04:31:55;11.60;;;4.87;;
7685;SDS011;3885;51.474;-2.576;2022-12-18T04:34:22;27.00;;;10.00;;
7685;SDS011;3885;51.474;-2.576;2022-12-18T04:36:49;9.47;;;3.73;;
7685;SDS011;3885;51.474;-2.576;2022-12-18T04:39:16;21.43;;;8.40;;
7685;SDS011;3885;51.474;-2.576;2022-12-18T04:41:43;15.80;;;6.47;;
7685;SDS011;3885;51.474;-2.576;2022-12-18T04:44:10;7.93;;;4.10;;
7685;SDS011;3885;51.474;-2.576;2022-12-18T04:46:37;17.13;;;8.83;;
7685;SDS011;3885;51.474;-2.576;2022-12-18T04:49:05;10.67;;;5.50;;
7685;SDS011;3885;51.474;-2.576;2022-12-18T04:51:32;23.67;;;6.67;;
7685;SDS011;3885;51.474;-2.576;2022-12-18T04:53:59;7.03;;;4.67;;
7685;SDS011;3885;51.474;-2.576;2022-12-18T04:56:25;7.80;;;4.47;;
7685;SDS011;3885;51.474;-2.576;2022-12-18T04:58:52;14.37;;;6.93;;
7685;SDS011;3885;51.474;-2.576;2022-12-18T05:01:19;30.23;;;10.83;;
7685;SDS011;3885;51.474;-2.576;2022-12-18T05:03:46;17.53;;;8.47;;
7685;SDS011;3885;51.474;-2.576;2022-12-18T05:06:15;15.63;;;7.20;;
7685;SDS011;3885;51.474;-2.576;2022-12-18T05:08:42;19.47;;;6.30;;
7685;SDS011;3885;51.474;-2.576;2022-12-18T05:11:10;9.97;;;6.00;;
7685;SDS011;3885;51.474;-2.576;2022-12-18T05:13:39;15.77;;;7.03;;
7685;SDS011;3885;51.474;-2.576;2022-12-18T05:16:06;30.90;;;11.27;;
7685;SDS011;3885;51.474;-2.576;2022-12-18T05:18:34;14.87;;;5.97;;
7685;SDS011;3885;51.474;-2.576;2022-12-18T05:21:01;60.43;;;17.07;;
7685;SDS011;3885;51.474;-2.576;2022-12-18T05:23:29;26.70;;;9.30;;
7685;SDS011;3885;51.474;-2.576;2022-12-18T05:25:57;30.97;;;10.20;;
7685;SDS011;3885;51.474;-2.576;2022-12-18T05:28:26;13.20;;;5.70;;
7685;SDS011;3885;51.474;-2.576;2022-12-18T05:30:54;12.37;;;6.50;;
7685;SDS011;3885;51.474;-2.576;2022-12-18T05:33:23;9.30;;;4.70;;
7685;SDS011;3885;51.474;-2.576;2022-12-18T05:35:51;17.00;;;7.07;;
7685;SDS011;3885;51.474;-2.576;2022-12-18T05:38:19;16.07;;;5.77;;
7685;SDS011;3885;51.474;-2.576;2022-12-18T05:40:48;9.73;;;5.97;;
7685;SDS011;3885;51.474;-2.576;2022-12-18T05:43:15;17.27;;;7.17;;
7685;SDS011;3885;51.474;-2.576;2022-12-18T05:45:43;13.23;;;6.73;;
7685;SDS011;3885;51.474;-2.576;2022-12-18T05:48:11;10.83;;;5.63;;
7685;SDS011;3885;51.474;-2.576;2022-12-18T05:50:39;12.47;;;6.17;;
7685;SDS011;3885;51.474;-2.576;2022-12-18T05:53:08;14.87;;;6.23;;
7685;SDS011;3885;51.474;-2.576;2022-12-18T05:55:36;14.70;;;6.57;;
7685;SDS011;3885;51.474;-2.576;2022-12-18T05:58:06;10.60;;;5.80;;
7685;SDS011;3885;51.474;-2.576;2022-12-18T06:00:34;14.60;;;6.60;;
7685;SDS011;3885;51.474;-2.576;2022-12-18T06:03:04;15.50;;;7.30;;
7685;SDS011;3885;51.474;-2.576;2022-12-18T06:05:34;13.03;;;5.93;;
7685;SDS011;3885;51.474;-2.576;2022-12-18T06:08:02;17.90;;;7.50;;
7685;SDS011;3885;51.474;-2.576;2022-12-18T06:10:29;18.47;;;5.87;;
7685;SDS011;3885;51.474;-2.576;2022-12-18T06:12:56;19.57;;;7.53;;
7685;SDS011;3885;51.474;-2.576;2022-12-18T06:15:25;23.53;;;7.83;;
7685;SDS011;3885;51.474;-2.576;2022-12-18T06:17:52;15.97;;;7.23;;
7685;SDS011;3885;51.474;-2.576;2022-12-18T06:20:19;12.33;;;6.80;;
7685;SDS011;3885;51.474;-2.576;2022-12-18T06:22:46;18.27;;;7.90;;
7685;SDS011;3885;51.474;-2.576;2022-12-18T06:25:13;17.37;;;7.07;;
7685;SDS011;3885;51.474;-2.576;2022-12-18T06:27:40;13.97;;;6.83;;
7685;SDS011;3885;51.474;-2.576;2022-12-18T06:30:07;16.03;;;5.77;;
7685;SDS011;3885;51.474;-2.576;2022-12-18T06:32:37;17.00;;;8.73;;
7685;SDS011;3885;51.474;-2.576;2022-12-18T06:35:04;19.37;;;7.20;;
7685;SDS011;3885;51.474;-2.576;2022-12-18T06:37:32;19.20;;;7.47;;
7685;SDS011;3885;51.474;-2.576;2022-12-18T06:39:58;22.80;;;7.00;;
7685;SDS011;3885;51.474;-2.576;2022-12-18T06:42:26;16.10;;;8.23;;
7685;SDS011;3885;51.474;-2.576;2022-12-18T06:44:54;28.77;;;12.07;;
7685;SDS011;3885;51.474;-2.576;2022-12-18T06:47:21;23.60;;;9.30;;
7685;SDS011;3885;51.474;-2.576;2022-12-18T06:49:49;24.53;;;10.40;;
7685;SDS011;3885;51.474;-2.576;2022-12-18T06:52:16;27.50;;;9.43;;
7685;SDS011;3885;51.474;-2.576;2022-12-18T06:54:43;26.60;;;9.63;;
7685;SDS011;3885;51.474;-2.576;2022-12-18T06:57:10;19.80;;;9.20;;
7685;SDS011;3885;51.474;-2.576;2022-12-18T06:59:37;21.83;;;9.30;;
7685;SDS011;3885;51.474;-2.576;2022-12-18T07:02:04;19.70;;;8.63;;
7685;SDS011;3885;51.474;-2.576;2022-12-18T07:04:31;15.73;;;8.03;;
7685;SDS011;3885;51.474;-2.576;2022-12-18T07:06:59;20.70;;;7.20;;
7685;SDS011;3885;51.474;-2.576;2022-12-18T07:09:26;9.33;;;5.43;;
7685;SDS011;3885;51.474;-2.576;2022-12-18T07:11:53;9.87;;;5.60;;
7685;SDS011;3885;51.474;-2.576;2022-12-18T07:14:20;15.47;;;6.93;;
7685;SDS011;3885;51.474;-2.576;2022-12-18T07:16:47;11.07;;;5.57;;
7685;SDS011;3885;51.474;-2.576;2022-12-18T07:19:14;15.73;;;6.13;;
7685;SDS011;3885;51.474;-2.576;2022-12-18T07:21:41;20.10;;;7.73;;
7685;SDS011;3885;51.474;-2.576;2022-12-18T07:24:09;19.87;;;6.90;;
7685;SDS011;3885;51.474;-2.576;2022-12-18T07:26:37;14.17;;;6.37;;
7685;SDS011;3885;51.474;-2.576;2022-12-18T07:29:04;10.00;;;6.53;;
7685;SDS011;3885;51.474;-2.576;2022-12-18T07:31:31;15.93;;;6.80;;
7685;SDS011;3885;51.474;-2.576;2022-12-18T07:33:58;14.10;;;6.83;;
7685;SDS011;3885;51.474;-2.576;2022-12-18T07:36:25;18.90;;;6.63;;
7685;SDS011;3885;51.474;-2.576;2022-12-18T07:38:52;12.87;;;6.60;;
7685;SDS011;3885;51.474;-2.576;2022-12-18T07:41:20;10.03;;;5.50;;
7685;SDS011;3885;51.474;-2.576;2022-12-18T07:43:47;32.20;;;8.13;;
7685;SDS011;3885;51.474;-2.576;2022-12-18T07:46:15;15.80;;;5.60;;
7685;SDS011;3885;51.474;-2.576;2022-12-18T07:48:43;15.10;;;6.57;;
7685;SDS011;3885;51.474;-2.576;2022-12-18T07:51:10;11.63;;;6.20;;
7685;SDS011;3885;51.474;-2.576;2022-12-18T07:53:37;13.93;;;6.03;;
7685;SDS011;3885;51.474;-2.576;2022-12-18T07:56:05;12.93;;;6.40;;
7685;SDS011;3885;51.474;-2.576;2022-12-18T07:58:35;10.50;;;5.60;;
7685;SDS011;3885;51.474;-2.576;2022-12-18T08:01:03;21.80;;;7.20;;
7685;SDS011;3885;51.474;-2.576;2022-12-18T08:03:31;12.90;;;5.93;;
7685;SDS011;3885;51.474;-2.576;2022-12-18T08:05:59;14.07;;;5.73;;
7685;SDS011;3885;51.474;-2.576;2022-12-18T08:08:26;17.53;;;7.50;;
7685;SDS011;3885;51.474;-2.576;2022-12-18T08:10:54;11.97;;;5.60;;
7685;SDS011;3885;51.474;-2.576;2022-12-18T08:13:21;13.40;;;6.40;;
7685;SDS011;3885;51.474;-2.576;2022-12-18T08:15:56;16.07;;;6.53;;
7685;SDS011;3885;51.474;-2.576;2022-12-18T08:18:23;17.37;;;6.67;;
7685;SDS011;3885;51.474;-2.576;2022-12-18T08:20:50;10.30;;;6.50;;
7685;SDS011;3885;51.474;-2.576;2022-12-18T08:23:17;17.50;;;5.37;;
7685;SDS011;3885;51.474;-2.576;2022-12-18T08:25:44;14.33;;;6.20;;
7685;SDS011;3885;51.474;-2.576;2022-12-18T08:28:11;16.53;;;5.67;;
7685;SDS011;3885;51.474;-2.576;2022-12-18T08:30:38;13.10;;;5.97;;
7685;SDS011;3885;51.474;-2.576;2022-12-18T08:33:07;13.97;;;7.17;;
7685;SDS011;3885;51.474;-2.576;2022-12-18T08:35:34;16.73;;;6.87;;
7685;SDS011;3885;51.474;-2.576;2022-12-18T08:38:02;24.30;;;5.47;;
7685;SDS011;3885;51.474;-2.576;2022-12-18T08:40:30;15.60;;;5.93;;
7685;SDS011;3885;51.474;-2.576;2022-12-18T08:42:56;17.70;;;5.57;;
7685;SDS011;3885;51.474;-2.576;2022-12-18T08:45:41;10.20;;;5.40;;
7685;SDS011;3885;51.474;-2.576;2022-12-18T08:48:10;13.60;;;6.80;;
7685;SDS011;3885;51.474;-2.576;2022-12-18T08:50:36;14.43;;;6.07;;
7685;SDS011;3885;51.474;-2.576;2022-12-18T08:53:04;14.10;;;6.13;;
7685;SDS011;3885;51.474;-2.576;2022-12-18T08:55:31;10.23;;;5.90;;
7685;SDS011;3885;51.474;-2.576;2022-12-18T08:57:57;11.80;;;5.07;;
7685;SDS011;3885;51.474;-2.576;2022-12-18T09:00:25;17.43;;;6.90;;
7685;SDS011;3885;51.474;-2.576;2022-12-18T09:02:52;11.90;;;5.47;;
7685;SDS011;3885;51.474;-2.576;2022-12-18T09:05:20;13.73;;;5.67;;
7685;SDS011;3885;51.474;-2.576;2022-12-18T09:07:47;11.40;;;5.37;;
7685;SDS011;3885;51.474;-2.576;2022-12-18T09:10:14;13.90;;;5.40;;
7685;SDS011;3885;51.474;-2.576;2022-12-18T09:12:41;20.67;;;7.23;;
7685;SDS011;3885;51.474;-2.576;2022-12-18T09:15:08;12.87;;;5.93;;
7685;SDS011;3885;51.474;-2.576;2022-12-18T09:17:36;13.13;;;6.53;;
7685;SDS011;3885;51.474;-2.576;2022-12-18T09:20:03;9.07;;;6.00;;
7685;SDS011;3885;51.474;-2.576;2022-12-18T09:22:32;7.77;;;5.30;;
7685;SDS011;3885;51.474;-2.576;2022-12-18T09:24:59;14.00;;;6.23;;
7685;SDS011;3885;51.474;-2.576;2022-12-18T09:27:26;10.83;;;5.97;;
7685;SDS011;3885;51.474;-2.576;2022-12-18T09:29:53;15.40;;;5.50;;
7685;SDS011;3885;51.474;-2.576;2022-12-18T09:32:20;9.37;;;4.37;;
7685;SDS011;3885;51.474;-2.576;2022-12-18T09:34:47;10.07;;;4.83;;
7685;SDS011;3885;51.474;-2.576;2022-12-18T09:37:14;12.20;;;6.30;;
7685;SDS011;3885;51.474;-2.576;2022-12-18T09:39:42;12.37;;;6.07;;
7685;SDS011;3885;51.474;-2.576;2022-12-18T09:42:09;11.90;;;5.90;;
7685;SDS011;3885;51.474;-2.576;2022-12-18T09:44:46;13.20;;;5.53;;
7685;SDS011;3885;51.474;-2.576;2022-12-18T09:47:17;8.60;;;5.73;;
7685;SDS011;3885;51.474;-2.576;2022-12-18T09:49:49;12.40;;;6.00;;
7685;SDS011;3885;51.474;-2.576;2022-12-18T09:52:19;11.07;;;5.33;;
7685;SDS011;3885;51.474;-2.576;2022-12-18T09:54:52;18.83;;;5.57;;
7685;SDS011;3885;51.474;-2.576;2022-12-18T09:57:22;14.87;;;5.40;;
7685;SDS011;3885;51.474;-2.576;2022-12-18T09:59:52;18.23;;;4.77;;
7685;SDS011;3885;51.474;-2.576;2022-12-18T10:02:23;9.13;;;5.60;;
7685;SDS011;3885;51.474;-2.576;2022-12-18T10:04:55;13.50;;;6.47;;
7685;SDS011;3885;51.474;-2.576;2022-12-18T10:07:30;12.73;;;6.60;;
7685;SDS011;3885;51.474;-2.576;2022-12-18T10:10:01;9.97;;;5.57;;
7685;SDS011;3885;51.474;-2.576;2022-12-18T10:12:36;12.67;;;5.63;;
7685;SDS011;3885;51.474;-2.576;2022-12-18T10:15:07;8.00;;;4.90;;
7685;SDS011;3885;51.474;-2.576;2022-12-18T10:17:41;9.93;;;5.40;;
7685;SDS011;3885;51.474;-2.576;2022-12-18T10:20:12;9.90;;;6.27;;
7685;SDS011;3885;51.474;-2.576;2022-12-18T10:22:48;10.27;;;4.93;;
7685;SDS011;3885;51.474;-2.576;2022-12-18T10:25:23;11.63;;;6.77;;
7685;SDS011;3885;51.474;-2.576;2022-12-18T10:27:53;8.60;;;5.70;;
7685;SDS011;3885;51.474;-2.576;2022-12-18T10:30:22;17.27;;;6.07;;
7685;SDS011;3885;51.474;-2.576;2022-12-18T10:32:50;13.73;;;5.90;;
7685;SDS011;3885;51.474;-2.576;2022-12-18T10:35:20;10.40;;;5.20;;
7685;SDS011;3885;51.474;-2.576;2022-12-18T10:40:52;12.60;;;7.60;;
7685;SDS011;3885;51.474;-2.576;2022-12-18T10:43:20;10.10;;;5.93;;
7685;SDS011;3885;51.474;-2.576;2022-12-18T10:45:59;14.10;;;5.40;;
7685;SDS011;3885;51.474;-2.576;2022-12-18T10:48:27;14.00;;;6.60;;
7685;SDS011;3885;51.474;-2.576;2022-12-18T10:50:56;10.17;;;6.60;;
7685;SDS011;3885;51.474;-2.576;2022-12-18T10:53:23;11.00;;;5.40;;
7685;SDS011;3885;51.474;-2.576;2022-12-18T10:55:53;13.27;;;6.67;;
7685;SDS011;3885;51.474;-2.576;2022-12-18T10:58:26;17.70;;;7.03;;
7685;SDS011;3885;51.474;-2.576;2022-12-18T11:01:04;16.73;;;7.30;;
7685;SDS011;3885;51.474;-2.576;2022-12-18T11:03:35;13.67;;;5.70;;
7685;SDS011;3885;51.474;-2.576;2022-12-18T11:06:04;14.20;;;6.77;;
7685;SDS011;3885;51.474;-2.576;2022-12-18T11:08:33;14.80;;;7.43;;
7685;SDS011;3885;51.474;-2.576;2022-12-18T11:11:02;10.37;;;6.60;;
7685;SDS011;3885;51.474;-2.576;2022-12-18T11:13:30;10.50;;;5.77;;
7685;SDS011;3885;51.474;-2.576;2022-12-18T11:15:58;13.90;;;6.03;;
7685;SDS011;3885;51.474;-2.576;2022-12-18T11:18:26;17.83;;;6.60;;
7685;SDS011;3885;51.474;-2.576;2022-12-18T11:20:55;19.97;;;9.30;;
7685;SDS011;3885;51.474;-2.576;2022-12-18T11:23:24;10.13;;;6.00;;
7685;SDS011;3885;51.474;-2.576;2022-12-18T11:25:53;14.60;;;6.80;;
7685;SDS011;3885;51.474;-2.576;2022-12-18T11:33:57;14.13;;;6.30;;
7685;SDS011;3885;51.474;-2.576;2022-12-18T11:36:28;21.80;;;7.57;;
7685;SDS011;3885;51.474;-2.576;2022-12-18T11:38:59;15.73;;;6.93;;
7685;SDS011;3885;51.474;-2.576;2022-12-18T11:41:32;9.33;;;5.60;;
7685;SDS011;3885;51.474;-2.576;2022-12-18T11:44:18;11.10;;;5.63;;
7685;SDS011;3885;51.474;-2.576;2022-12-18T11:46:51;14.70;;;5.70;;
7685;SDS011;3885;51.474;-2.576;2022-12-18T11:49:20;20.67;;;7.37;;
7685;SDS011;3885;51.474;-2.576;2022-12-18T11:51:50;17.17;;;6.97;;
7685;SDS011;3885;51.474;-2.576;2022-12-18T11:54:22;13.03;;;5.80;;
7685;SDS011;3885;51.474;-2.576;2022-12-18T11:56:49;8.70;;;4.97;;
7685;SDS011;3885;51.474;-2.576;2022-12-18T11:59:26;10.47;;;6.57;;
7685;SDS011;3885;51.474;-2.576;2022-12-18T12:01:56;19.37;;;7.70;;
7685;SDS011;3885;51.474;-2.576;2022-12-18T12:04:32;10.87;;;6.73;;
7685;SDS011;3885;51.474;-2.576;2022-12-18T12:07:19;9.57;;;5.13;;
7685;SDS011;3885;51.474;-2.576;2022-12-18T12:09:59;10.13;;;6.13;;
7685;SDS011;3885;51.474;-2.576;2022-12-18T12:12:36;13.43;;;7.30;;
7685;SDS011;3885;51.474;-2.576;2022-12-18T12:15:22;11.50;;;5.53;;
7685;SDS011;3885;51.474;-2.576;2022-12-18T12:17:53;8.93;;;5.27;;
7685;SDS011;3885;51.474;-2.576;2022-12-18T12:20:25;10.87;;;6.00;;
7685;SDS011;3885;51.474;-2.576;2022-12-18T12:23:05;9.90;;;5.03;;
7685;SDS011;3885;51.474;-2.576;2022-12-18T12:25:42;9.27;;;6.43;;
7685;SDS011;3885;51.474;-2.576;2022-12-18T12:28:13;12.40;;;4.90;;
7685;SDS011;3885;51.474;-2.576;2022-12-18T12:30:46;8.03;;;5.57;;
7685;SDS011;3885;51.474;-2.576;2022-12-18T12:33:26;5.97;;;4.13;;
7685;SDS011;3885;51.474;-2.576;2022-12-18T12:36:03;7.43;;;4.53;;
7685;SDS011;3885;51.474;-2.576;2022-12-18T12:38:35;8.30;;;4.87;;
7685;SDS011;3885;51.474;-2.576;2022-12-18T12:41:04;5.90;;;4.50;;
7685;SDS011;3885;51.474;-2.576;2022-12-18T12:43:55;11.03;;;4.67;;
7685;SDS011;3885;51.474;-2.576;2022-12-18T12:46:23;5.47;;;4.03;;
7685;SDS011;3885;51.474;-2.576;2022-12-18T12:48:52;5.73;;;4.60;;
7685;SDS011;3885;51.474;-2.576;2022-12-18T12:51:22;5.83;;;3.93;;
7685;SDS011;3885;51.474;-2.576;2022-12-18T12:53:52;6.70;;;2.93;;
7685;SDS011;3885;51.474;-2.576;2022-12-18T12:56:22;5.87;;;3.50;;
7685;SDS011;3885;51.474;-2.576;2022-12-18T12:58:55;13.97;;;5.50;;
7685;SDS011;3885;51.474;-2.576;2022-12-18T13:01:32;7.57;;;3.40;;
7685;SDS011;3885;51.474;-2.576;2022-12-18T13:04:07;5.43;;;3.37;;
7685;SDS011;3885;51.474;-2.576;2022-12-18T13:06:38;4.40;;;3.10;;
7685;SDS011;3885;51.474;-2.576;2022-12-18T13:09:09;17.13;;;6.37;;
7685;SDS011;3885;51.474;-2.576;2022-12-18T13:11:37;5.97;;;3.13;;
7685;SDS011;3885;51.474;-2.576;2022-12-18T13:14:24;3.77;;;3.03;;
7685;SDS011;3885;51.474;-2.576;2022-12-18T13:20:05;4.67;;;3.70;;
7685;SDS011;3885;51.474;-2.576;2022-12-18T13:22:37;3.43;;;3.00;;
7685;SDS011;3885;51.474;-2.576;2022-12-18T13:28:00;3.27;;;2.97;;
7685;SDS011;3885;51.474;-2.576;2022-12-18T13:30:47;2.20;;;2.00;;
7685;SDS011;3885;51.474;-2.576;2022-12-18T13:36:25;2.60;;;2.40;;
7685;SDS011;3885;51.474;-2.576;2022-12-18T13:39:11;2.83;;;2.53;;
7685;SDS011;3885;51.474;-2.576;2022-12-18T13:41:53;2.10;;;1.90;;
7685;SDS011;3885;51.474;-2.576;2022-12-18T13:44:55;1.87;;;1.77;;
7685;SDS011;3885;51.474;-2.576;2022-12-18T13:47:25;4.73;;;2.10;;
7685;SDS011;3885;51.474;-2.576;2022-12-18T13:49:53;1.77;;;1.67;;
7685;SDS011;3885;51.474;-2.576;2022-12-18T13:52:22;2.47;;;2.20;;
7685;SDS011;3885;51.474;-2.576;2022-12-18T13:54:54;3.17;;;2.00;;
7685;SDS011;3885;51.474;-2.576;2022-12-18T13:57:27;2.13;;;1.93;;
7685;SDS011;3885;51.474;-2.576;2022-12-18T13:59:56;2.27;;;2.10;;
7685;SDS011;3885;51.474;-2.576;2022-12-18T14:02:24;4.37;;;2.50;;
7685;SDS011;3885;51.474;-2.576;2022-12-18T14:04:53;2.63;;;1.87;;
7685;SDS011;3885;51.474;-2.576;2022-12-18T14:07:22;2.93;;;2.27;;
7685;SDS011;3885;51.474;-2.576;2022-12-18T14:09:51;4.17;;;2.27;;
7685;SDS011;3885;51.474;-2.576;2022-12-18T14:12:22;7.50;;;5.47;;
7685;SDS011;3885;51.474;-2.576;2022-12-18T14:15:11;2.40;;;2.20;;
7685;SDS011;3885;51.474;-2.576;2022-12-18T14:17:49;2.47;;;2.27;;
7685;SDS011;3885;51.474;-2.576;2022-12-18T14:20:16;3.50;;;2.40;;
7685;SDS011;3885;51.474;-2.576;2022-12-18T14:22:46;3.50;;;3.20;;
7685;SDS011;3885;51.474;-2.576;2022-12-18T14:25:16;19.97;;;10.50;;
7685;SDS011;3885;51.474;-2.576;2022-12-18T14:27:44;1.20;;;1.20;;
7685;SDS011;3885;51.474;-2.576;2022-12-18T14:30:23;3.43;;;1.60;;
7685;SDS011;3885;51.474;-2.576;2022-12-18T14:33:03;3.60;;;1.73;;
7685;SDS011;3885;51.474;-2.576;2022-12-18T14:35:32;1.60;;;1.50;;
7685;SDS011;3885;51.474;-2.576;2022-12-18T14:38:15;1.30;;;1.20;;
7685;SDS011;3885;51.474;-2.576;2022-12-18T14:40:47;1.13;;;1.03;;
7685;SDS011;3885;51.474;-2.576;2022-12-18T14:43:17;1.23;;;1.13;;
7685;SDS011;3885;51.474;-2.576;2022-12-18T14:45:44;0.70;;;0.70;;
7685;SDS011;3885;51.474;-2.576;2022-12-18T14:48:14;1.33;;;1.00;;
7685;SDS011;3885;51.474;-2.576;2022-12-18T14:50:43;0.90;;;0.90;;
7685;SDS011;3885;51.474;-2.576;2022-12-18T14:53:20;1.80;;;1.67;;
7685;SDS011;3885;51.474;-2.576;2022-12-18T14:55:50;1.13;;;1.03;;
7685;SDS011;3885;51.474;-2.576;2022-12-18T14:58:17;1.73;;;1.00;;
7685;SDS011;3885;51.474;-2.576;2022-12-18T15:00:44;1.33;;;1.23;;
7685;SDS011;3885;51.474;-2.576;2022-12-18T15:03:12;1.53;;;1.43;;
7685;SDS011;3885;51.474;-2.576;2022-12-18T15:05:44;25.27;;;5.13;;
7685;SDS011;3885;51.474;-2.576;2022-12-18T15:08:26;0.97;;;0.90;;
7685;SDS011;3885;51.474;-2.576;2022-12-18T15:10:56;0.83;;;0.83;;
7685;SDS011;3885;51.474;-2.576;2022-12-18T15:13:23;1.40;;;1.40;;
7685;SDS011;3885;51.474;-2.576;2022-12-18T15:15:51;1.00;;;1.00;;
7685;SDS011;3885;51.474;-2.576;2022-12-18T15:18:19;2.40;;;1.23;;
7685;SDS011;3885;51.474;-2.576;2022-12-18T15:20:50;1.10;;;1.03;;
7685;SDS011;3885;51.474;-2.576;2022-12-18T15:23:19;1.00;;;1.00;;
7685;SDS011;3885;51.474;-2.576;2022-12-18T15:25:53;0.70;;;0.70;;
7685;SDS011;3885;51.474;-2.576;2022-12-18T15:28:23;0.97;;;0.97;;